Time;durP1;ratioP1;P1;durP2;ratioP2;P2;SDS_P1;SDS_P2;PMS_P1;PMS_P2;Temp;Humidity;BMP_temperature;BMP_pressure;BME280_temperature;BME280_humidity;BME280_pressure;Samples;Min_cycle;Max_cycle;Signal;HPM_P1;HPM_P2
2023/03/27 00:00:57;;;;;;;2.63;1.00;;;8.60;99.90;;;;;;7692466;28;20240;-84
2023/03/27 00:04:43;;;;;;;3.47;1.23;;;8.60;99.90;;;;;;7670537;28;20284;-84
2023/03/27 00:08:30;;;;;;;2.90;1.30;;;8.60;99.90;;;;;;7680629;29;20345;-86
2023/03/27 00:12:16;;;;;;;3.03;1.60;;;8.60;99.90;;;;;;7680749;28;20208;-85
2023/03/27 00:16:04;;;;;;;1.70;1.60;;;8.60;99.90;;;;;;7688959;28;20822;-85
2023/03/27 00:19:49;;;;;;;3.73;1.80;;;8.60;99.90;;;;;;7673386;28;20277;-84
2023/03/27 00:23:35;;;;;;;2.60;1.40;;;8.50;99.90;;;;;;7681161;28;20221;-85
2023/03/27 00:27:20;;;;;;;3.63;1.60;;;8.50;99.90;;;;;;7688981;28;20225;-85
2023/03/27 00:31:11;;;;;;;2.53;2.07;;;8.60;99.90;;;;;;7680531;28;20193;-84
2023/03/27 00:34:57;;;;;;;2.50;1.70;;;8.60;99.90;;;;;;7666250;28;20222;-84
2023/03/27 00:38:44;;;;;;;4.20;2.10;;;8.50;99.90;;;;;;7674846;28;20201;-86
2023/03/27 00:42:29;;;;;;;5.47;2.20;;;8.50;99.90;;;;;;7693488;28;20201;-85
2023/03/27 00:46:26;;;;;;;2.73;2.13;;;8.50;99.90;;;;;;7700522;28;20292;-85
2023/03/27 00:50:17;;;;;;;3.63;2.13;;;8.50;99.90;;;;;;7697980;28;20838;-86
2023/03/27 00:54:05;;;;;;;3.77;2.30;;;8.40;99.90;;;;;;7679828;28;20228;-85
2023/03/27 00:57:56;;;;;;;4.00;2.50;;;8.50;99.90;;;;;;7689489;28;20663;-85
2023/03/27 01:01:44;;;;;;;5.77;3.43;;;8.20;99.90;;;;;;7672757;28;20201;-86
2023/03/27 01:05:30;;;;;;;10.13;4.40;;;7.90;99.90;;;;;;7704232;28;20249;-85
2023/03/27 01:09:16;;;;;;;9.67;4.43;;;7.70;99.90;;;;;;7693134;28;20256;-86
2023/03/27 01:13:26;;;;;;;5.40;3.67;;;7.40;99.90;;;;;;7687858;28;20197;-84
2023/03/27 01:17:44;;;;;;;9.73;4.10;;;7.30;99.90;;;;;;7701175;28;20283;-85
2023/03/27 01:21:32;;;;;;;8.00;3.80;;;7.20;99.90;;;;;;7687651;28;20197;-85
2023/03/27 01:25:40;;;;;;;6.73;2.70;;;7.10;99.90;;;;;;7692843;28;20355;-86
2023/03/27 01:29:32;;;;;;;8.13;3.20;;;7.10;99.90;;;;;;7709727;28;20229;-85
2023/03/27 01:33:56;;;;;;;6.57;2.50;;;7.00;99.90;;;;;;7684185;28;20271;-84
2023/03/27 01:38:06;;;;;;;6.00;1.83;;;7.00;99.90;;;;;;7707097;28;20253;-85
2023/03/27 01:41:58;;;;;;;6.23;2.10;;;6.70;99.90;;;;;;7685081;28;20222;-86
2023/03/27 01:45:56;;;;;;;2.97;1.60;;;6.60;99.90;;;;;;7684082;28;20279;-84
2023/03/27 01:49:56;;;;;;;6.43;1.70;;;6.70;99.90;;;;;;7687663;28;20693;-85
2023/03/27 01:53:55;;;;;;;6.93;1.60;;;6.70;99.90;;;;;;7682892;28;20299;-87
2023/03/27 01:58:15;;;;;;;6.33;2.00;;;6.40;99.90;;;;;;7674116;28;20225;-86
2023/03/27 02:02:18;;;;;;;9.37;2.10;;;6.40;99.90;;;;;;7616193;29;20220;-87
2023/03/27 02:06:16;;;;;;;4.57;1.83;;;6.40;99.90;;;;;;7618710;29;20214;-86
2023/03/27 02:10:07;;;;;;;2.63;1.67;;;6.40;99.90;;;;;;7623738;29;20218;-87
2023/03/27 02:13:59;;;;;;;3.30;1.37;;;6.40;99.90;;;;;;7612267;29;20247;-85
2023/03/27 02:18:08;;;;;;;6.87;1.47;;;6.50;99.90;;;;;;7603617;29;20657;-86
2023/03/27 02:21:54;;;;;;;4.30;1.60;;;6.40;99.90;;;;;;7613914;29;20194;-87
2023/03/27 02:25:44;;;;;;;4.27;1.50;;;6.20;99.90;;;;;;7641135;29;20222;-86
2023/03/27 02:29:41;;;;;;;5.20;1.70;;;6.20;99.90;;;;;;7617197;29;20202;-87
2023/03/27 02:33:56;;;;;;;1.67;1.27;;;6.30;99.90;;;;;;7603763;29;20222;-86
2023/03/27 02:38:03;;;;;;;2.17;1.30;;;6.30;99.90;;;;;;7645594;29;20217;-86
2023/03/27 02:42:11;;;;;;;1.80;1.30;;;6.40;99.90;;;;;;7678751;28;20535;-84
2023/03/27 02:46:04;;;;;;;2.30;1.20;;;6.40;99.90;;;;;;7683224;28;20216;-85
2023/03/27 02:49:58;;;;;;;3.43;1.87;;;6.50;99.90;;;;;;7693220;28;20568;-85
2023/03/27 02:53:57;;;;;;;2.37;1.87;;;6.70;99.90;;;;;;7683775;28;20212;-86
2023/03/27 02:57:45;;;;;;;2.17;1.47;;;6.60;99.90;;;;;;7685533;28;20247;-86
2023/03/27 03:01:33;;;;;;;1.87;1.57;;;6.60;99.90;;;;;;7690471;28;20189;-85
2023/03/27 03:05:21;;;;;;;1.87;1.50;;;6.30;99.90;;;;;;7689378;28;20269;-85
2023/03/27 03:09:08;;;;;;;4.40;1.50;;;6.30;99.90;;;;;;7690694;28;20296;-87
2023/03/27 03:12:54;;;;;;;3.63;1.40;;;6.30;99.90;;;;;;7694899;28;20663;-86
2023/03/27 03:16:39;;;;;;;3.07;1.63;;;6.20;99.90;;;;;;7682721;29;20422;-86
2023/03/27 03:20:28;;;;;;;3.00;1.73;;;6.10;99.90;;;;;;7685049;29;20201;-85
2023/03/27 03:24:14;;;;;;;3.60;2.20;;;6.20;99.90;;;;;;7698299;28;20212;-86
2023/03/27 03:28:00;;;;;;;5.03;2.20;;;6.00;99.90;;;;;;7696810;28;20189;-85
2023/03/27 03:31:46;;;;;;;4.57;2.50;;;6.00;99.90;;;;;;7712448;28;20549;-87
2023/03/27 03:35:33;;;;;;;7.00;2.80;;;6.00;99.90;;;;;;7690256;28;20217;-86
2023/03/27 03:39:19;;;;;;;3.67;2.50;;;6.10;99.90;;;;;;7684432;28;20228;-87
2023/03/27 03:43:05;;;;;;;4.20;2.63;;;6.20;99.90;;;;;;7685544;28;20193;-87
2023/03/27 03:46:50;;;;;;;4.40;2.70;;;6.10;99.90;;;;;;7682658;28;20268;-87
2023/03/27 03:50:36;;;;;;;3.90;2.80;;;6.10;99.90;;;;;;7683647;28;20197;-85
2023/03/27 03:54:21;;;;;;;4.73;2.47;;;6.20;99.90;;;;;;7682543;28;20221;-85
2023/03/27 03:58:08;;;;;;;6.40;2.43;;;6.30;99.90;;;;;;7699229;28;20216;-85
2023/03/27 04:01:53;;;;;;;4.97;3.07;;;6.30;99.90;;;;;;7681145;28;20190;-86
2023/03/27 04:05:39;;;;;;;4.73;2.63;;;6.20;99.90;;;;;;7678650;28;20692;-86
2023/03/27 04:09:25;;;;;;;5.40;2.80;;;6.20;99.90;;;;;;7675763;28;20216;-85
2023/03/27 04:13:10;;;;;;;10.17;2.60;;;6.20;99.90;;;;;;7676898;28;20185;-85
2023/03/27 04:16:58;;;;;;;5.50;2.87;;;6.00;99.90;;;;;;7684087;28;20213;-86
2023/03/27 04:20:48;;;;;;;5.73;2.50;;;5.80;99.90;;;;;;7686413;28;20204;-85
2023/03/27 04:24:34;;;;;;;10.70;4.50;;;5.80;99.90;;;;;;7686695;28;20308;-86
2023/03/27 04:28:20;;;;;;;3.90;2.73;;;6.00;99.90;;;;;;7679333;28;20196;-86
2023/03/27 04:32:05;;;;;;;4.43;3.10;;;6.00;99.90;;;;;;7697324;28;20284;-86
2023/03/27 04:35:51;;;;;;;8.73;3.10;;;5.90;99.90;;;;;;7681070;28;20747;-85
2023/03/27 04:39:41;;;;;;;6.77;3.50;;;6.00;99.90;;;;;;7693230;28;20193;-87
2023/03/27 04:43:27;;;;;;;3.70;2.53;;;6.00;99.90;;;;;;7665958;29;20602;-84
2023/03/27 04:47:13;;;;;;;6.10;2.90;;;6.00;99.90;;;;;;7690801;28;20211;-86
2023/03/27 04:50:58;;;;;;;7.50;3.03;;;6.00;99.90;;;;;;7705868;28;20192;-85
2023/03/27 04:54:45;;;;;;;4.17;2.57;;;6.00;99.90;;;;;;7712438;28;20642;-86
2023/03/27 04:58:31;;;;;;;9.53;3.57;;;6.00;99.90;;;;;;7684584;28;20213;-86
2023/03/27 05:02:16;;;;;;;5.37;2.60;;;5.90;99.90;;;;;;7679773;28;20648;-86
2023/03/27 05:06:03;;;;;;;4.73;2.50;;;6.00;99.90;;;;;;7689148;29;20220;-85
2023/03/27 05:09:49;;;;;;;5.73;2.77;;;6.00;99.90;;;;;;7675834;28;20197;-87
2023/03/27 05:13:35;;;;;;;4.43;2.20;;;5.90;99.90;;;;;;7681065;28;20233;-87
2023/03/27 05:17:24;;;;;;;9.33;2.57;;;5.90;99.90;;;;;;7687030;28;20986;-86
2023/03/27 05:21:10;;;;;;;6.20;2.53;;;5.80;99.90;;;;;;7724882;22;20243;-83
2023/03/27 05:24:57;;;;;;;6.43;2.27;;;5.70;99.90;;;;;;7738917;28;20235;-82
2023/03/27 05:28:43;;;;;;;5.87;3.07;;;5.60;99.90;;;;;;7722233;28;20224;-85
2023/03/27 05:32:29;;;;;;;7.70;2.63;;;5.60;99.90;;;;;;7715042;28;20670;-83
2023/03/27 05:36:14;;;;;;;4.07;2.23;;;5.60;99.90;;;;;;7718613;28;20220;-82
2023/03/27 05:40:00;;;;;;;4.97;2.73;;;5.50;99.90;;;;;;7724512;28;20185;-82
2023/03/27 05:43:46;;;;;;;5.70;3.30;;;5.40;99.90;;;;;;7716339;28;20192;-82
2023/03/27 05:47:31;;;;;;;6.47;2.50;;;5.50;99.90;;;;;;7714687;28;20268;-83
2023/03/27 05:51:17;;;;;;;4.37;2.40;;;5.60;99.90;;;;;;7709277;28;20188;-82
2023/03/27 05:55:03;;;;;;;4.53;1.90;;;5.50;99.90;;;;;;7732952;28;20213;-82
2023/03/27 05:58:49;;;;;;;5.33;1.93;;;5.40;99.90;;;;;;7706900;28;20251;-84
2023/03/27 06:02:35;;;;;;;8.30;2.97;;;5.10;99.90;;;;;;7723759;28;20188;-83
2023/03/27 06:06:20;;;;;;;5.67;2.77;;;5.10;99.90;;;;;;7711592;28;20204;-82
2023/03/27 06:10:08;;;;;;;6.93;2.57;;;5.10;99.90;;;;;;7713824;28;20200;-83
2023/03/27 06:13:54;;;;;;;6.83;3.80;;;5.20;99.90;;;;;;7719900;28;20247;-82
2023/03/27 06:17:41;;;;;;;4.90;3.20;;;5.20;99.90;;;;;;7703675;28;20225;-82
2023/03/27 06:21:26;;;;;;;5.10;2.70;;;5.00;99.90;;;;;;7705984;28;20208;-83
2023/03/27 06:25:13;;;;;;;4.63;2.63;;;4.90;99.90;;;;;;7718750;28;20230;-85
2023/03/27 06:28:59;;;;;;;2.93;2.27;;;4.80;99.90;;;;;;7717740;28;20224;-86
2023/03/27 06:32:47;;;;;;;4.00;2.40;;;4.90;99.90;;;;;;7726555;28;20223;-84
2023/03/27 06:36:33;;;;;;;4.47;3.10;;;5.00;99.90;;;;;;7712532;28;20718;-83
2023/03/27 06:40:21;;;;;;;5.43;2.60;;;4.90;99.90;;;;;;7720336;28;20638;-82
2023/03/27 06:44:07;;;;;;;5.80;2.07;;;4.90;99.90;;;;;;7725100;28;20181;-83
2023/03/27 06:47:54;;;;;;;4.60;2.70;;;4.80;99.90;;;;;;7741285;28;20254;-83
2023/03/27 06:51:39;;;;;;;6.17;3.23;;;5.00;99.90;;;;;;7713518;28;20212;-82
2023/03/27 06:55:27;;;;;;;4.00;2.43;;;5.00;99.90;;;;;;7712074;28;20217;-82
2023/03/27 06:59:13;;;;;;;4.77;2.73;;;4.90;99.90;;;;;;7732714;28;20212;-84
2023/03/27 07:03:01;;;;;;;3.97;2.70;;;5.00;99.90;;;;;;7718423;28;20223;-82
2023/03/27 07:06:47;;;;;;;3.53;2.80;;;4.80;99.90;;;;;;7724287;28;20725;-85
2023/03/27 07:10:33;;;;;;;12.67;6.23;;;4.60;99.90;;;;;;7714419;28;20200;-83
2023/03/27 07:14:19;;;;;;;3.97;2.70;;;4.60;99.90;;;;;;7735764;28;20251;-82
2023/03/27 07:18:06;;;;;;;5.17;2.20;;;4.50;99.90;;;;;;7717311;28;20312;-84
2023/03/27 07:21:52;;;;;;;2.73;2.30;;;4.30;99.90;;;;;;7712492;28;20201;-83
2023/03/27 07:25:38;;;;;;;2.40;1.60;;;4.30;99.90;;;;;;7728652;28;20204;-84
2023/03/27 07:29:23;;;;;;;4.87;1.90;;;4.10;99.90;;;;;;7728614;28;20244;-84
2023/03/27 07:33:09;;;;;;;3.87;2.50;;;4.00;99.90;;;;;;7705606;28;20196;-82
2023/03/27 07:36:58;;;;;;;2.97;2.00;;;4.50;99.90;;;;;;7716457;28;20307;-82
2023/03/27 07:40:45;;;;;;;2.30;1.87;;;4.50;99.90;;;;;;7740481;28;20189;-84
2023/03/27 07:44:30;;;;;;;2.83;1.93;;;4.40;99.90;;;;;;7711528;28;20659;-81
2023/03/27 07:48:17;;;;;;;5.40;2.63;;;4.40;99.90;;;;;;7730064;28;20212;-83
2023/03/27 07:52:03;;;;;;;4.03;1.70;;;4.40;99.90;;;;;;7717595;28;20188;-82
2023/03/27 07:55:51;;;;;;;3.13;2.10;;;4.50;99.90;;;;;;7715499;28;20219;-82
2023/03/27 07:59:37;;;;;;;3.00;2.17;;;4.50;99.90;;;;;;7734393;28;20208;-82
2023/03/27 08:03:24;;;;;;;2.87;1.43;;;4.40;99.90;;;;;;7720537;28;20200;-82
2023/03/27 08:07:10;;;;;;;3.57;1.60;;;4.40;99.90;;;;;;7743791;28;20220;-83
2023/03/27 08:10:57;;;;;;;1.37;1.10;;;4.30;99.90;;;;;;7727974;28;20212;-84
2023/03/27 08:14:45;;;;;;;3.70;1.60;;;4.20;99.90;;;;;;7734726;28;20193;-83
2023/03/27 08:18:31;;;;;;;3.33;2.17;;;4.20;99.90;;;;;;7726422;28;20216;-83
2023/03/27 08:22:17;;;;;;;3.27;2.33;;;4.30;99.90;;;;;;7738821;28;20251;-85
2023/03/27 08:26:04;;;;;;;3.73;1.90;;;4.10;99.90;;;;;;7738503;28;20200;-84
2023/03/27 08:29:50;;;;;;;3.73;2.23;;;4.00;99.90;;;;;;7732260;28;20196;-85
2023/03/27 08:33:37;;;;;;;3.07;2.40;;;4.00;99.90;;;;;;7727662;28;20244;-83
2023/03/27 08:37:23;;;;;;;6.03;3.33;;;4.00;99.90;;;;;;7734309;28;20239;-86
2023/03/27 08:41:29;;;;;;;2.83;1.90;;;4.20;99.90;;;;;;7731904;28;20196;-84
2023/03/27 08:45:32;;;;;;;3.53;2.43;;;4.40;99.90;;;;;;7732603;28;20642;-87
2023/03/27 08:49:20;;;;;;;7.20;2.80;;;4.30;99.90;;;;;;7737997;28;20216;-84
2023/03/27 08:53:14;;;;;;;5.77;2.43;;;4.50;99.90;;;;;;7737883;28;20185;-87
2023/03/27 08:57:02;;;;;;;5.00;2.47;;;4.70;99.90;;;;;;7737382;28;20819;-85
2023/03/27 09:00:57;;;;;;;3.67;2.37;;;4.50;99.90;;;;;;7727060;28;20747;-86
2023/03/27 09:04:52;;;;;;;2.33;1.70;;;4.50;99.90;;;;;;7750847;28;20286;-85
2023/03/27 09:08:53;;;;;;;3.53;1.53;;;4.40;99.90;;;;;;7737107;28;20216;-82
2023/03/27 09:12:42;;;;;;;4.33;2.23;;;4.60;99.90;;;;;;7731145;28;20200;-82
2023/03/27 09:16:33;;;;;;;3.80;1.70;;;4.80;99.90;;;;;;7746679;28;20224;-87
2023/03/27 09:20:52;;;;;;;4.97;1.93;;;5.10;99.90;;;;;;7731153;28;20189;-83
2023/03/27 09:24:45;;;;;;;4.53;2.00;;;4.90;99.90;;;;;;7727424;28;20219;-83
2023/03/27 09:28:44;;;;;;;3.67;1.70;;;4.90;99.90;;;;;;7791208;22;20250;-86
2023/03/27 09:32:29;;;;;;;4.63;2.33;;;4.90;99.90;;;;;;7804802;28;20208;-85
2023/03/27 09:36:16;;;;;;;3.43;2.20;;;4.90;99.90;;;;;;7831656;28;20240;-86
2023/03/27 09:40:06;;;;;;;3.70;1.70;;;4.80;99.90;;;;;;7819907;28;20273;-85
2023/03/27 09:43:58;;;;;;;3.10;1.80;;;4.80;99.90;;;;;;7796720;28;20204;-85
2023/03/27 09:47:58;;;;;;;4.33;1.90;;;4.70;99.90;;;;;;7835954;28;20202;-86
2023/03/27 09:51:45;;;;;;;3.33;1.73;;;4.80;99.90;;;;;;7808688;28;20310;-85
2023/03/27 09:55:33;;;;;;;2.33;1.73;;;4.90;99.90;;;;;;7794019;28;20219;-86
2023/03/27 09:59:24;;;;;;;9.10;1.93;;;5.00;99.90;;;;;;7806946;28;20179;-87
2023/03/27 10:03:17;;;;;;;9.00;5.43;;;5.20;99.90;;;;;;7801929;28;20297;-86
2023/03/27 10:07:07;;;;;;;5.40;3.40;;;5.10;99.90;;;;;;7811030;28;20682;-86
2023/03/27 10:10:57;;;;;;;2.77;2.10;;;5.00;99.90;;;;;;7814157;28;20221;-86
2023/03/27 10:14:46;;;;;;;1.60;1.30;;;5.00;99.90;;;;;;7813107;28;20193;-85
2023/03/27 10:18:40;;;;;;;6.40;1.53;;;4.90;99.90;;;;;;7810582;28;20566;-86
2023/03/27 10:22:30;;;;;;;3.60;1.50;;;4.90;99.90;;;;;;7793675;28;20217;-86
2023/03/27 10:26:20;;;;;;;2.67;1.40;;;5.00;99.90;;;;;;7805935;28;20656;-86
2023/03/27 10:30:28;;;;;;;4.10;1.40;;;5.00;99.90;;;;;;7812448;28;20226;-86
2023/03/27 10:34:54;;;;;;;3.33;1.43;;;5.00;99.90;;;;;;7812845;28;20203;-86
2023/03/27 10:38:41;;;;;;;3.47;1.60;;;5.10;99.90;;;;;;7732458;28;20202;-86
2023/03/27 10:42:31;;;;;;;3.10;1.37;;;5.20;99.90;;;;;;7740586;28;20262;-85
2023/03/27 10:46:20;;;;;;;3.00;1.50;;;5.00;99.90;;;;;;7721967;28;20192;-85
2023/03/27 10:50:23;;;;;;;1.80;1.20;;;4.80;99.90;;;;;;7755446;28;20226;-86
2023/03/27 10:54:34;;;;;;;1.93;1.30;;;4.70;99.90;;;;;;7731141;28;20188;-86
2023/03/27 10:58:42;;;;;;;6.30;1.53;;;4.90;99.90;;;;;;7752835;28;20740;-86
2023/03/27 11:02:37;;;;;;;4.27;1.80;;;5.20;99.90;;;;;;7729699;28;20250;-85
2023/03/27 11:06:29;;;;;;;2.07;1.30;;;5.30;99.90;;;;;;7728434;28;20212;-86
2023/03/27 11:10:20;;;;;;;3.80;1.10;;;5.30;99.90;;;;;;7749357;28;20265;-86
2023/03/27 11:14:16;;;;;;;4.17;1.10;;;5.50;95.10;;;;;;7809470;28;20193;-86
2023/03/27 11:18:24;;;;;;;1.20;0.80;;;5.20;97.40;;;;;;7804064;28;20213;-86
2023/03/27 11:22:24;;;;;;;5.53;1.30;;;5.10;94.40;;;;;;7799088;22;20241;-87
2023/03/27 11:26:14;;;;;;;3.47;1.00;;;5.10;97.60;;;;;;7765952;28;20183;-84
2023/03/27 11:30:32;;;;;;;2.13;1.20;;;5.30;98.20;;;;;;7774664;28;20180;-85
2023/03/27 11:34:42;;;;;;;5.67;1.60;;;5.30;98.30;;;;;;7718581;28;20325;-85
2023/03/27 11:38:32;;;;;;;2.83;1.70;;;5.10;96.90;;;;;;7742381;28;20658;-86
2023/03/27 11:42:31;;;;;;;6.27;2.10;;;5.20;99.90;;;;;;7725281;28;20214;-88
2023/03/27 11:46:23;;;;;;;10.30;2.23;;;5.30;99.90;;;;;;7730647;28;20279;-86
2023/03/27 11:50:33;;;;;;;3.77;1.70;;;5.50;99.90;;;;;;7718508;28;20227;-86
2023/03/27 11:54:40;;;;;;;6.17;1.23;;;5.40;99.90;;;;;;7744760;28;20226;-86
2023/03/27 11:58:39;;;;;;;2.10;1.40;;;5.40;99.10;;;;;;7714088;28;20267;-84
2023/03/27 12:03:07;;;;;;;4.67;1.50;;;5.30;98.90;;;;;;7714890;28;20213;-85
2023/03/27 12:07:22;;;;;;;4.13;1.40;;;5.30;99.90;;;;;;7713261;28;20609;-86
2023/03/27 12:11:10;;;;;;;3.90;1.57;;;5.40;99.90;;;;;;7728429;28;20559;-86
2023/03/27 12:15:02;;;;;;;6.00;1.73;;;5.50;98.70;;;;;;7716515;28;20573;-85
2023/03/27 12:19:19;;;;;;;6.10;1.33;;;5.70;97.10;;;;;;7699280;28;20827;-85
2023/03/27 12:23:38;;;;;;;7.13;1.60;;;5.70;97.50;;;;;;7697039;28;20233;-84
2023/03/27 12:28:04;;;;;;;1.77;1.20;;;5.70;97.40;;;;;;7719975;28;20184;-84
2023/03/27 12:32:08;;;;;;;4.60;1.20;;;5.80;99.90;;;;;;7761682;28;20264;-85
2023/03/27 12:35:57;;;;;;;3.23;1.50;;;5.70;94.10;;;;;;7731030;28;20216;-87
2023/03/27 12:39:47;;;;;;;4.97;1.80;;;5.70;98.50;;;;;;7739525;28;20199;-85
2023/03/27 12:43:40;;;;;;;5.37;2.10;;;5.80;99.90;;;;;;7720869;28;20235;-85
2023/03/27 12:47:28;;;;;;;6.80;2.33;;;5.70;93.90;;;;;;7719556;28;20228;-86
2023/03/27 12:51:18;;;;;;;4.17;1.80;;;5.80;97.20;;;;;;7719784;28;20256;-87
2023/03/27 12:55:32;;;;;;;2.40;1.40;;;5.80;93.90;;;;;;7719933;28;20275;-88
2023/03/27 12:59:25;;;;;;;2.27;1.00;;;5.90;95.40;;;;;;7725312;28;20196;-87
2023/03/27 13:03:12;;;;;;;3.57;1.10;;;6.10;92.10;;;;;;7721382;28;20208;-86
2023/03/27 13:07:19;;;;;;;4.20;1.47;;;6.30;90.50;;;;;;7745292;28;20665;-85
2023/03/27 13:11:11;;;;;;;4.33;1.90;;;6.30;86.90;;;;;;7738092;28;20235;-85
2023/03/27 13:15:02;;;;;;;2.47;1.27;;;6.10;90.10;;;;;;7736000;28;20193;-85
2023/03/27 13:19:07;;;;;;;1.93;1.40;;;6.00;92.50;;;;;;7704397;28;20193;-85
2023/03/27 13:23:28;;;;;;;7.70;4.20;;;6.00;91.20;;;;;;7725197;28;20236;-85
2023/03/27 13:27:36;;;;;;;6.33;2.30;;;6.10;92.10;;;;;;7733338;28;20665;-85
2023/03/27 13:31:44;;;;;;;4.03;1.30;;;6.10;88.20;;;;;;7714370;28;20216;-84
2023/03/27 13:35:40;;;;;;;7.47;1.30;;;6.00;90.10;;;;;;7722025;28;20290;-86
2023/03/27 13:39:39;;;;;;;2.83;1.43;;;6.00;90.00;;;;;;7725302;28;20200;-85
2023/03/27 13:43:32;;;;;;;6.53;1.83;;;6.00;90.50;;;;;;7713915;28;20216;-85
2023/03/27 13:47:33;;;;;;;3.53;1.17;;;6.10;91.50;;;;;;7724944;28;20204;-85
2023/03/27 13:51:55;;;;;;;5.17;1.80;;;6.30;90.30;;;;;;7727138;28;20281;-86
2023/03/27 13:55:46;;;;;;;7.40;2.87;;;6.30;87.30;;;;;;7712897;28;20205;-86
2023/03/27 14:00:09;;;;;;;3.60;1.50;;;6.30;87.80;;;;;;7714539;28;20235;-86
2023/03/27 14:04:26;;;;;;;2.47;1.20;;;6.30;85.40;;;;;;7720568;28;20184;-87
2023/03/27 14:08:33;;;;;;;4.60;1.20;;;6.30;85.50;;;;;;7716814;28;20573;-85
2023/03/27 14:12:29;;;;;;;3.07;1.03;;;6.10;87.10;;;;;;7711853;28;20213;-86
2023/03/27 14:16:43;;;;;;;4.63;1.40;;;6.00;89.70;;;;;;7705886;28;20214;-85
2023/03/27 14:20:35;;;;;;;5.03;1.20;;;5.90;93.80;;;;;;7712313;28;20216;-87
2023/03/27 14:24:50;;;;;;;4.90;1.20;;;5.80;95.70;;;;;;7738748;28;20192;-85
2023/03/27 14:28:50;;;;;;;6.83;1.33;;;5.80;99.30;;;;;;7735293;28;20201;-86
2023/03/27 14:32:36;;;;;;;2.73;1.17;;;5.90;99.90;;;;;;7726273;28;20217;-86
2023/03/27 14:36:24;;;;;;;3.13;2.00;;;5.70;99.90;;;;;;7735549;28;20718;-85
2023/03/27 14:40:27;;;;;;;5.43;2.27;;;5.60;97.10;;;;;;7728573;28;20256;-85
2023/03/27 14:44:13;;;;;;;1.97;1.20;;;5.60;99.50;;;;;;7715553;28;20243;-87
2023/03/27 14:48:05;;;;;;;5.77;1.80;;;5.50;98.70;;;;;;7713694;28;20304;-86
2023/03/27 14:51:52;;;;;;;3.30;1.90;;;5.40;99.90;;;;;;7734454;28;20246;-86
2023/03/27 14:55:39;;;;;;;3.37;2.07;;;5.50;99.90;;;;;;7714890;28;20240;-85
2023/03/27 14:59:33;;;;;;;5.50;2.30;;;5.40;99.90;;;;;;7713441;28;20252;-86
2023/03/27 15:03:24;;;;;;;6.10;3.07;;;5.50;99.90;;;;;;7714459;28;20223;-84
2023/03/27 15:07:18;;;;;;;22.93;15.47;;;5.60;99.90;;;;;;7714333;28;20208;-87
2023/03/27 15:11:16;;;;;;;23.93;15.00;;;5.70;99.90;;;;;;7729042;28;20209;-86
2023/03/27 15:15:02;;;;;;;8.13;4.47;;;5.80;99.90;;;;;;7726506;28;20219;-85
2023/03/27 15:18:59;;;;;;;3.37;1.90;;;5.80;99.90;;;;;;7731026;28;20335;-85
2023/03/27 15:22:59;;;;;;;7.43;3.20;;;5.60;99.90;;;;;;7736086;28;20220;-85
2023/03/27 15:26:48;;;;;;;1.83;1.30;;;5.60;99.90;;;;;;7732390;28;20196;-85
2023/03/27 15:30:44;;;;;;;5.10;2.63;;;5.60;99.90;;;;;;7746871;28;20219;-84
2023/03/27 15:34:44;;;;;;;3.00;1.40;;;5.50;99.90;;;;;;7721655;28;20303;-85
2023/03/27 15:38:33;;;;;;;2.40;1.40;;;5.30;99.90;;;;;;7720728;28;20227;-85
2023/03/27 15:42:19;;;;;;;4.03;1.87;;;5.20;99.90;;;;;;7708817;28;20208;-86
2023/03/27 15:46:13;;;;;;;2.43;1.30;;;5.10;99.90;;;;;;7719602;28;20191;-85
2023/03/27 15:50:19;;;;;;;3.33;1.73;;;5.20;99.90;;;;;;7726195;28;20588;-86
2023/03/27 15:54:21;;;;;;;2.17;1.53;;;5.20;99.90;;;;;;7742321;28;20202;-86
2023/03/27 15:58:25;;;;;;;3.40;1.40;;;5.40;99.90;;;;;;7749458;28;20723;-85
2023/03/27 16:02:14;;;;;;;4.60;1.73;;;5.30;99.90;;;;;;7717552;28;20223;-87
2023/03/27 16:06:02;;;;;;;4.70;2.97;;;5.30;99.90;;;;;;7719093;28;20586;-85
2023/03/27 16:09:51;;;;;;;5.77;2.90;;;5.40;99.90;;;;;;7721655;28;20564;-86
2023/03/27 16:13:57;;;;;;;2.33;0.77;;;5.40;99.90;;;;;;7731080;28;20216;-85
2023/03/27 16:17:50;;;;;;;2.93;1.20;;;5.30;99.90;;;;;;7729879;28;20200;-86
2023/03/27 16:21:36;;;;;;;1.63;1.00;;;5.20;99.90;;;;;;7757025;28;20597;-86
2023/03/27 16:25:22;;;;;;;2.77;1.10;;;5.10;99.90;;;;;;7722363;28;20197;-88
2023/03/27 16:29:09;;;;;;;1.97;1.77;;;4.90;99.90;;;;;;7731453;28;20240;-85
2023/03/27 16:32:55;;;;;;;2.93;1.50;;;5.00;99.90;;;;;;7730077;28;20375;-86
2023/03/27 16:36:40;;;;;;;3.47;1.37;;;4.90;99.90;;;;;;7718541;28;20236;-85
2023/03/27 16:40:27;;;;;;;4.33;1.70;;;5.10;99.90;;;;;;7716970;28;20686;-87
2023/03/27 16:44:12;;;;;;;3.00;1.70;;;5.20;99.90;;;;;;7720048;28;20287;-84
2023/03/27 16:47:58;;;;;;;2.23;1.80;;;5.30;99.90;;;;;;7717290;28;20208;-86
2023/03/27 16:51:44;;;;;;;4.57;2.60;;;5.20;99.90;;;;;;7725125;28;20217;-87
2023/03/27 16:55:30;;;;;;;9.33;5.63;;;5.10;99.90;;;;;;7731064;28;20216;-86
2023/03/27 16:59:15;;;;;;;5.63;3.10;;;5.00;99.90;;;;;;7726577;28;20227;-85
2023/03/27 17:03:02;;;;;;;8.87;3.17;;;5.00;99.90;;;;;;7714909;28;20216;-85
2023/03/27 17:06:48;;;;;;;7.37;3.83;;;5.10;99.90;;;;;;7713681;28;20258;-86
2023/03/27 17:10:33;;;;;;;8.07;3.10;;;5.20;99.90;;;;;;7720221;28;20220;-87
2023/03/27 17:14:19;;;;;;;4.20;2.47;;;5.20;99.90;;;;;;7721555;28;20204;-88
2023/03/27 17:18:05;;;;;;;5.20;3.20;;;5.20;99.90;;;;;;7727698;28;20248;-85
2023/03/27 17:21:50;;;;;;;6.67;3.20;;;5.00;99.90;;;;;;7717472;28;20229;-87
2023/03/27 17:25:36;;;;;;;8.47;5.47;;;4.90;99.90;;;;;;7740551;28;20559;-87
2023/03/27 17:29:23;;;;;;;16.90;9.73;;;5.00;99.90;;;;;;7717012;28;20805;-86
2023/03/27 17:33:10;;;;;;;12.27;6.70;;;5.10;99.90;;;;;;7740760;28;20228;-86
2023/03/27 17:36:55;;;;;;;3.03;1.93;;;5.10;99.90;;;;;;7718571;28;20547;-86
2023/03/27 17:40:41;;;;;;;4.27;2.50;;;4.70;99.90;;;;;;7705439;28;20217;-85
2023/03/27 17:44:27;;;;;;;4.97;2.23;;;4.10;99.90;;;;;;7734275;28;20192;-87
2023/03/27 17:48:12;;;;;;;6.70;2.50;;;3.80;99.90;;;;;;7714241;28;20200;-86
2023/03/27 17:52:01;;;;;;;3.40;2.03;;;4.10;99.90;;;;;;7720653;28;20232;-86
2023/03/27 17:55:49;;;;;;;2.87;2.20;;;4.30;99.90;;;;;;7738940;28;20368;-86
2023/03/27 17:59:37;;;;;;;3.53;2.40;;;4.40;99.90;;;;;;7743869;28;20221;-86
2023/03/27 18:03:23;;;;;;;2.70;1.33;;;4.50;99.90;;;;;;7736181;28;20208;-87
2023/03/27 18:07:08;;;;;;;20.17;9.83;;;4.60;99.90;;;;;;7737949;28;20278;-86
2023/03/27 18:10:54;;;;;;;11.90;6.57;;;4.60;99.90;;;;;;7738801;28;21231;-85
2023/03/27 18:14:41;;;;;;;1.57;1.40;;;4.20;99.90;;;;;;7743292;28;20197;-84
2023/03/27 18:18:26;;;;;;;5.63;3.73;;;4.20;99.90;;;;;;7745345;28;20215;-85
2023/03/27 18:22:12;;;;;;;1.13;1.00;;;4.40;99.90;;;;;;7718199;28;20228;-86
2023/03/27 18:26:02;;;;;;;1.70;1.50;;;4.50;99.90;;;;;;7719014;28;20207;-84
2023/03/27 18:29:48;;;;;;;3.40;1.33;;;4.60;99.90;;;;;;7723949;28;20197;-85
2023/03/27 18:33:34;;;;;;;3.57;1.10;;;4.60;99.90;;;;;;7734150;28;20272;-86
2023/03/27 18:37:21;;;;;;;2.37;1.20;;;4.60;99.90;;;;;;7724573;28;20720;-85
2023/03/27 18:41:07;;;;;;;4.23;2.20;;;4.50;99.90;;;;;;7749552;28;20207;-87
2023/03/27 18:44:53;;;;;;;3.73;2.80;;;4.40;99.90;;;;;;7732745;28;20204;-86
2023/03/27 18:48:39;;;;;;;4.70;3.03;;;4.10;99.90;;;;;;7711369;28;20202;-87
2023/03/27 18:52:25;;;;;;;2.47;2.23;;;4.10;99.90;;;;;;7731834;28;20220;-87
2023/03/27 18:56:11;;;;;;;3.67;2.10;;;4.00;99.90;;;;;;7732454;28;20307;-87
2023/03/27 18:59:57;;;;;;;2.13;1.93;;;3.90;99.90;;;;;;7730303;28;20184;-85
2023/03/27 19:03:43;;;;;;;4.27;2.60;;;3.90;99.90;;;;;;7719413;28;20729;-86
2023/03/27 19:07:29;;;;;;;6.43;3.10;;;3.60;99.90;;;;;;7726161;28;20207;-86
2023/03/27 19:11:15;;;;;;;2.57;2.03;;;3.80;99.90;;;;;;7713472;28;20215;-86
2023/03/27 19:15:01;;;;;;;3.33;2.20;;;3.90;99.90;;;;;;7723721;28;20189;-86
2023/03/27 19:18:46;;;;;;;4.63;3.10;;;4.00;99.90;;;;;;7734151;28;20208;-86
2023/03/27 19:22:32;;;;;;;2.43;1.93;;;4.10;99.90;;;;;;7723051;28;20768;-87
2023/03/27 19:26:18;;;;;;;3.63;2.80;;;4.10;99.90;;;;;;7719523;28;20209;-85
2023/03/27 19:30:06;;;;;;;2.80;2.30;;;4.10;99.90;;;;;;7718830;28;20290;-87
2023/03/27 19:33:52;;;;;;;4.67;2.90;;;4.00;99.90;;;;;;7736644;28;20209;-85
2023/03/27 19:37:37;;;;;;;3.37;2.50;;;4.00;99.90;;;;;;7725880;28;20211;-86
2023/03/27 19:41:24;;;;;;;5.10;3.13;;;3.80;99.90;;;;;;7725533;28;20216;-86
2023/03/27 19:45:11;;;;;;;2.87;2.00;;;3.80;99.90;;;;;;7729460;28;20280;-86
2023/03/27 19:48:57;;;;;;;5.00;1.77;;;3.80;99.90;;;;;;7732954;28;20291;-86
2023/03/27 19:52:44;;;;;;;2.23;1.70;;;3.70;99.90;;;;;;7716850;28;20224;-85
2023/03/27 19:56:30;;;;;;;6.47;2.07;;;3.60;99.90;;;;;;7740256;28;20211;-86
2023/03/27 20:00:16;;;;;;;5.17;2.90;;;3.50;99.90;;;;;;7722221;28;20248;-84
2023/03/27 20:04:03;;;;;;;5.97;3.50;;;3.60;99.90;;;;;;7743421;28;20203;-82
2023/03/27 20:07:49;;;;;;;1.77;1.67;;;3.50;99.90;;;;;;7750455;28;20200;-86
2023/03/27 20:11:34;;;;;;;3.30;1.83;;;3.60;99.90;;;;;;7725985;28;20271;-87
2023/03/27 20:15:20;;;;;;;4.33;1.90;;;3.60;99.90;;;;;;7734249;28;20184;-85
2023/03/27 20:19:06;;;;;;;2.53;1.50;;;3.70;99.90;;;;;;7737104;28;20188;-86
2023/03/27 20:22:56;;;;;;;2.77;1.80;;;3.60;99.90;;;;;;7740851;28;20256;-85